KALO

Waterloo Regional Airport

Waterloo, Iowa, USA
KALO 230520Z 2306/2406 06006KT P6SM FEW150
Issued Valid From Valid To
Apr-23 @ 05:20 UTC
(4 hours ago)
Apr-23 @ 06:00 UTC
(3 hours ago)
Apr-24 @ 06:00 UTC
(in 21 hours)
Apr-23 @ 06:00 to Apr-24 @ 06:00
KALO 230520Z 2306/2406 06006KT P6SM FEW150
Wind Visibility Clouds
60° at 6 knots Greater than 6 miles
  • Few at 15,000' AGL
KALO 230520Z 2306/2406 06006KT P6SM FEW150
Issued Apr-23 @ 05:20 UTC
(4 hours ago)
Valid From Apr-23 @ 06:00 UTC
(3 hours ago)
Valid To Apr-24 @ 06:00 UTC
(in 21 hours)
Apr-23 @ 06:00 - Apr-24 @ 06:00
Wind Visibility
60° at 6 knots Greater than 6 miles
Clouds
  • Few at 15,000' AGL